createdAt,value
2023-08-11T00:01:06.476Z,17.32
2023-08-11T00:03:34.049Z,17.25
2023-08-11T00:06:00.838Z,17.16
2023-08-11T00:08:27.425Z,17.10
2023-08-11T00:10:54.003Z,16.97
2023-08-11T00:13:20.545Z,16.85
2023-08-11T00:15:47.142Z,16.87
2023-08-11T00:18:13.681Z,16.92
2023-08-11T00:20:40.239Z,16.93
2023-08-11T00:23:06.803Z,16.96
2023-08-11T00:25:33.528Z,17.01
2023-08-11T00:28:00.278Z,17.07
2023-08-11T00:30:26.840Z,17.12
2023-08-11T00:32:53.551Z,17.06
2023-08-11T00:35:20.229Z,17.00
2023-08-11T00:37:46.794Z,16.99
2023-08-11T00:40:13.333Z,16.86
2023-08-11T00:42:40.019Z,16.80
2023-08-11T00:45:07.768Z,16.75
2023-08-11T00:47:34.467Z,16.63
2023-08-11T00:50:01.173Z,16.62
2023-08-11T00:52:27.826Z,16.75
2023-08-11T00:54:56.702Z,16.83
2023-08-11T00:57:24.025Z,16.84
2023-08-11T00:59:51.846Z,16.86
2023-08-11T01:02:18.887Z,16.85
2023-08-11T01:04:45.455Z,16.82
2023-08-11T01:07:37.297Z,16.86
2023-08-11T01:10:20.341Z,16.95
2023-08-11T01:13:06.987Z,17.02
2023-08-11T01:15:40.641Z,17.02
2023-08-11T01:18:08.401Z,17.06
2023-08-11T01:20:36.223Z,17.02
2023-08-11T01:23:05.865Z,16.97
2023-08-11T01:25:33.545Z,16.95
2023-08-11T01:28:01.098Z,17.02
2023-08-11T01:30:29.028Z,17.10
2023-08-11T01:32:55.531Z,17.12
2023-08-11T01:35:38.406Z,17.03
2023-08-11T01:38:11.297Z,17.05
2023-08-11T01:40:39.258Z,16.91
2023-08-11T01:43:08.568Z,16.77
2023-08-11T01:45:35.142Z,16.65
2023-08-11T01:48:02.837Z,16.56
2023-08-11T01:50:30.420Z,16.49
2023-08-11T01:52:57.237Z,16.46
2023-08-11T01:55:26.222Z,16.45
2023-08-11T01:57:59.098Z,16.43
2023-08-11T02:00:27.843Z,16.38
2023-08-11T02:02:55.158Z,16.33
2023-08-11T02:05:22.696Z,16.23
2023-08-11T02:07:49.196Z,16.22
2023-08-11T02:10:15.806Z,16.21
2023-08-11T02:12:42.528Z,16.29
2023-08-11T02:15:11.826Z,16.34
2023-08-11T02:17:39.179Z,16.34
2023-08-11T02:20:22.646Z,16.32
2023-08-11T02:22:50.456Z,16.35
2023-08-11T02:25:17.159Z,16.33
2023-08-11T02:27:44.766Z,16.27
2023-08-11T02:30:12.726Z,16.30
2023-08-11T02:32:40.533Z,16.20
2023-08-11T02:35:07.460Z,16.12
2023-08-11T02:37:34.287Z,16.12
2023-08-11T02:40:00.815Z,16.12
2023-08-11T02:42:27.320Z,16.08
2023-08-11T02:44:54.148Z,16.10
2023-08-11T02:47:20.686Z,16.09
2023-08-11T02:49:47.184Z,16.06
2023-08-11T02:52:14.176Z,16.01
2023-08-11T02:54:40.788Z,15.97
2023-08-11T02:57:07.365Z,16.06
2023-08-11T02:59:33.979Z,16.06
2023-08-11T03:02:00.515Z,16.09
2023-08-11T03:04:27.094Z,16.14
2023-08-11T03:06:53.687Z,16.12
2023-08-11T03:09:20.245Z,16.12
2023-08-11T03:11:46.742Z,16.15
2023-08-11T03:14:13.402Z,16.11
2023-08-11T03:16:40.023Z,16.06
2023-08-11T03:19:06.542Z,16.00
2023-08-11T03:21:33.273Z,15.99
2023-08-11T03:24:00.693Z,16.02
2023-08-11T03:26:27.269Z,16.06
2023-08-11T03:28:53.790Z,16.09
2023-08-11T03:31:20.345Z,16.07
2023-08-11T03:33:47.018Z,16.04
2023-08-11T03:36:14.117Z,15.99
2023-08-11T03:38:40.835Z,15.99
2023-08-11T03:41:07.731Z,15.99
2023-08-11T03:43:34.272Z,15.94
2023-08-11T03:46:01.160Z,15.90
2023-08-11T03:48:27.717Z,15.86
2023-08-11T03:50:59.575Z,15.80
2023-08-11T03:53:26.098Z,15.74
2023-08-11T03:55:52.594Z,15.72
2023-08-11T03:58:19.212Z,15.78
2023-08-11T04:00:45.783Z,15.82
2023-08-11T04:03:12.368Z,15.82
2023-08-11T04:05:39.033Z,15.84
2023-08-11T04:08:05.707Z,15.88
2023-08-11T04:10:32.614Z,15.89
2023-08-11T04:12:59.214Z,15.88
2023-08-11T04:15:25.901Z,15.83
2023-08-11T04:17:53.260Z,15.83
2023-08-11T04:20:20.018Z,15.84
2023-08-11T04:22:46.535Z,15.80
2023-08-11T04:25:13.557Z,15.76
2023-08-11T04:27:40.738Z,15.71
2023-08-11T04:30:09.121Z,15.69
2023-08-11T04:32:35.662Z,15.71
2023-08-11T04:35:02.289Z,15.75
2023-08-11T04:37:28.844Z,15.80
2023-08-11T04:39:55.404Z,15.81
2023-08-11T04:42:21.931Z,15.81
2023-08-11T04:44:48.947Z,15.82
2023-08-11T04:47:16.025Z,15.91
2023-08-11T04:49:43.307Z,15.91
2023-08-11T04:52:10.754Z,15.98
2023-08-11T04:54:37.429Z,15.97
2023-08-11T04:57:04.251Z,15.97
2023-08-11T04:59:30.825Z,15.99
2023-08-11T05:01:57.421Z,16.02
2023-08-11T05:04:24.002Z,16.07
2023-08-11T05:06:50.503Z,16.15
2023-08-11T05:09:17.014Z,16.19
2023-08-11T05:11:43.554Z,16.21
2023-08-11T05:14:10.030Z,16.28
2023-08-11T05:16:36.830Z,16.34
2023-08-11T05:19:05.147Z,16.39
2023-08-11T05:21:31.800Z,16.45
2023-08-11T05:23:58.320Z,16.50
2023-08-11T05:26:24.948Z,16.56
2023-08-11T05:28:51.545Z,16.58
2023-08-11T05:31:18.259Z,16.64
2023-08-11T05:33:45.074Z,16.72
2023-08-11T05:36:11.606Z,16.77
2023-08-11T05:38:38.252Z,16.80
2023-08-11T05:41:04.842Z,16.87
2023-08-11T05:43:31.467Z,16.90
2023-08-11T05:45:58.576Z,16.93
2023-08-11T05:48:25.162Z,16.93
2023-08-11T05:50:51.663Z,16.93
2023-08-11T05:53:18.252Z,17.01
2023-08-11T05:55:44.817Z,17.10
2023-08-11T05:58:11.515Z,17.15
2023-08-11T06:00:38.060Z,17.19
2023-08-11T06:03:04.678Z,17.24
2023-08-11T06:05:31.282Z,17.28
2023-08-11T06:08:06.169Z,17.34
2023-08-11T06:10:34.320Z,17.40
2023-08-11T06:13:00.973Z,17.46
2023-08-11T06:15:27.571Z,17.52
2023-08-11T06:17:54.166Z,17.56
2023-08-11T06:20:34.267Z,17.61
2023-08-11T06:23:06.290Z,17.68
2023-08-11T06:25:32.836Z,17.72
2023-08-11T06:27:59.377Z,17.76
2023-08-11T06:30:30.552Z,17.80
2023-08-11T06:32:57.853Z,17.89
2023-08-11T06:35:25.461Z,17.96
2023-08-11T06:37:52.135Z,18.03
2023-08-11T06:40:19.019Z,18.09
2023-08-11T06:42:45.692Z,18.18
2023-08-11T06:45:12.401Z,18.25
2023-08-11T06:47:38.967Z,18.27
2023-08-11T06:50:06.062Z,18.32
2023-08-11T06:52:32.737Z,18.37
2023-08-11T06:54:59.293Z,18.43
2023-08-11T06:57:25.877Z,18.51
2023-08-11T06:59:52.430Z,18.57
2023-08-11T07:02:19.097Z,18.65
2023-08-11T07:04:46.053Z,18.74
2023-08-11T07:07:12.558Z,18.84
2023-08-11T07:09:39.210Z,18.92
2023-08-11T07:12:05.894Z,18.98
2023-08-11T07:14:32.515Z,19.08
2023-08-11T07:16:59.072Z,19.13
2023-08-11T07:19:25.800Z,19.20
2023-08-11T07:21:52.285Z,19.32
2023-08-11T07:24:18.801Z,19.40
2023-08-11T07:26:45.396Z,19.47
2023-08-11T07:29:12.050Z,19.60
2023-08-11T07:31:40.617Z,19.70
2023-08-11T07:34:07.162Z,19.75
2023-08-11T07:36:33.656Z,19.80
2023-08-11T07:39:12.744Z,19.86
2023-08-11T07:41:47.104Z,19.94
2023-08-11T07:44:13.734Z,20.00
2023-08-11T07:46:40.313Z,20.09
2023-08-11T07:49:07.222Z,20.17
2023-08-11T07:51:33.852Z,20.27
2023-08-11T07:54:00.460Z,20.39
2023-08-11T07:56:27.125Z,20.46
2023-08-11T07:58:54.242Z,20.58
2023-08-11T08:01:21.084Z,20.77
2023-08-11T08:03:47.758Z,20.90
2023-08-11T08:06:15.718Z,20.99
2023-08-11T08:08:42.241Z,21.13
2023-08-11T08:11:08.830Z,21.18
2023-08-11T08:13:35.397Z,21.26
2023-08-11T08:16:01.971Z,21.39
2023-08-11T08:18:28.504Z,21.56
2023-08-11T08:20:55.098Z,21.68
2023-08-11T08:23:22.027Z,21.77
2023-08-11T08:25:48.601Z,21.94
2023-08-11T08:28:15.146Z,22.08
2023-08-11T08:30:42.386Z,22.16
2023-08-11T08:33:09.119Z,22.24
2023-08-11T08:35:37.208Z,22.34
2023-08-11T08:38:04.403Z,22.41
2023-08-11T08:40:32.419Z,22.55
2023-08-11T08:42:59.046Z,22.69
2023-08-11T08:45:26.837Z,22.78
2023-08-11T08:47:55.960Z,22.87
2023-08-11T08:50:24.033Z,22.96
2023-08-11T08:52:53.025Z,23.00
2023-08-11T08:55:20.022Z,23.02
2023-08-11T08:57:48.380Z,23.20
2023-08-11T09:00:15.408Z,23.36
2023-08-11T09:02:43.304Z,23.44
2023-08-11T09:05:10.198Z,23.61
2023-08-11T09:07:36.828Z,23.78
2023-08-11T09:10:03.492Z,23.64
2023-08-11T09:12:30.111Z,23.52
2023-08-11T09:14:57.295Z,23.54
2023-08-11T09:17:25.321Z,23.62
2023-08-11T09:19:53.555Z,23.75
2023-08-11T09:22:26.790Z,23.97
2023-08-11T09:24:54.978Z,24.24
2023-08-11T09:27:22.904Z,24.26
2023-08-11T09:29:50.916Z,24.15
2023-08-11T09:32:17.606Z,23.99
2023-08-11T09:34:44.905Z,23.92
2023-08-11T09:37:11.834Z,23.88
2023-08-11T09:39:38.502Z,23.84
2023-08-11T09:42:05.431Z,24.10
2023-08-11T09:44:31.983Z,24.41
2023-08-11T09:46:58.957Z,24.68
2023-08-11T09:49:25.726Z,24.82
2023-08-11T09:51:55.255Z,24.88
2023-08-11T09:54:22.629Z,24.73
2023-08-11T09:56:50.504Z,24.65
2023-08-11T09:59:20.190Z,24.65
2023-08-11T10:01:47.559Z,24.81
2023-08-11T10:04:23.941Z,25.03
2023-08-11T10:06:54.331Z,25.10
2023-08-11T10:09:24.457Z,25.09
2023-08-11T10:11:53.771Z,25.16
2023-08-11T10:14:22.584Z,25.14
2023-08-11T10:16:49.153Z,25.10
2023-08-11T10:19:16.018Z,25.04
2023-08-11T10:21:42.624Z,25.07
2023-08-11T10:24:10.008Z,25.26
2023-08-11T10:26:37.603Z,25.31
2023-08-11T10:29:04.749Z,25.40
2023-08-11T10:31:33.123Z,25.55
2023-08-11T10:34:06.959Z,25.67
2023-08-11T10:36:34.094Z,25.68
2023-08-11T10:39:01.907Z,25.69
2023-08-11T10:41:29.568Z,25.73
2023-08-11T10:43:57.327Z,25.70
2023-08-11T10:46:32.081Z,25.76
2023-08-11T10:48:58.659Z,25.80
2023-08-11T10:51:30.675Z,25.75
2023-08-11T10:54:00.775Z,25.74
2023-08-11T10:56:35.988Z,25.77
2023-08-11T10:59:26.600Z,25.81
2023-08-11T11:01:55.047Z,25.79
2023-08-11T11:04:23.527Z,25.78
2023-08-11T11:06:54.727Z,25.77
2023-08-11T11:09:22.670Z,25.81
2023-08-11T11:11:51.822Z,25.85
2023-08-11T11:14:18.651Z,25.83
2023-08-11T11:16:45.302Z,25.86
2023-08-11T11:19:11.873Z,25.89
2023-08-11T11:21:41.135Z,25.92
2023-08-11T11:24:09.110Z,26.01
2023-08-11T11:26:35.838Z,26.02
2023-08-11T11:29:04.199Z,26.04
2023-08-11T11:31:33.179Z,26.06
2023-08-11T11:33:59.982Z,26.07
2023-08-11T11:36:26.860Z,26.09
2023-08-11T11:38:53.438Z,26.12
2023-08-11T11:41:21.034Z,26.18
2023-08-11T11:43:49.215Z,26.22
2023-08-11T11:46:17.799Z,26.29
2023-08-11T11:48:52.389Z,26.30
2023-08-11T11:51:22.064Z,26.30
2023-08-11T11:53:51.569Z,26.34
2023-08-11T11:56:19.117Z,26.38
2023-08-11T11:58:49.352Z,26.46
2023-08-11T12:01:22.625Z,26.58
2023-08-11T12:03:51.251Z,26.68
2023-08-11T12:06:19.744Z,26.74
2023-08-11T12:08:49.482Z,26.87
2023-08-11T12:11:23.886Z,26.99
2023-08-11T12:13:51.086Z,27.08
2023-08-11T12:16:18.576Z,27.21
2023-08-11T12:18:45.201Z,27.25
2023-08-11T12:21:12.311Z,27.27
2023-08-11T12:23:39.408Z,27.23
2023-08-11T12:26:06.203Z,27.34
2023-08-11T12:28:32.762Z,27.27
2023-08-11T12:30:59.302Z,27.21
2023-08-11T12:33:26.658Z,27.20
2023-08-11T12:35:53.303Z,27.40
2023-08-11T12:38:21.848Z,27.61
2023-08-11T12:40:49.686Z,27.61
2023-08-11T12:43:17.091Z,27.78
2023-08-11T12:45:48.720Z,27.83
2023-08-11T12:48:15.918Z,27.82
2023-08-11T12:50:43.024Z,27.87
2023-08-11T12:53:10.175Z,27.85
2023-08-11T12:55:40.421Z,27.79
2023-08-11T12:58:07.309Z,27.74
2023-08-11T13:00:36.230Z,27.63
2023-08-11T13:03:03.097Z,27.64
2023-08-11T13:05:29.757Z,27.60
2023-08-11T13:07:57.298Z,27.41
2023-08-11T13:10:23.855Z,27.33
2023-08-11T13:12:50.602Z,27.31
2023-08-11T13:15:17.379Z,27.23
2023-08-11T13:17:45.858Z,27.12
2023-08-11T13:20:13.501Z,26.98
2023-08-11T13:22:41.184Z,26.83
2023-08-11T13:25:08.268Z,26.71
2023-08-11T13:27:35.111Z,26.68
2023-08-11T13:30:02.174Z,26.65
2023-08-11T13:32:29.633Z,26.70
2023-08-11T13:34:56.214Z,26.88
2023-08-11T13:37:22.694Z,27.06
2023-08-11T13:39:49.218Z,27.26
2023-08-11T13:42:17.583Z,27.42
2023-08-11T13:44:44.344Z,27.46
2023-08-11T13:47:11.015Z,27.43
2023-08-11T13:49:37.535Z,27.48
2023-08-11T13:52:04.347Z,27.58
2023-08-11T13:54:31.025Z,27.60
2023-08-11T13:56:57.560Z,27.57
2023-08-11T13:59:24.075Z,27.56
2023-08-11T14:01:50.608Z,27.56
2023-08-11T14:04:17.920Z,27.54
2023-08-11T14:06:44.437Z,27.49
2023-08-11T14:09:10.903Z,27.43
2023-08-11T14:11:38.814Z,27.44
2023-08-11T14:14:05.570Z,27.39
2023-08-11T14:16:32.158Z,27.36
2023-08-11T14:18:58.827Z,27.30
2023-08-11T14:21:25.369Z,27.23
2023-08-11T14:23:51.962Z,27.26
2023-08-11T14:26:18.585Z,27.18
2023-08-11T14:28:45.403Z,27.14
2023-08-11T14:31:12.230Z,27.10
2023-08-11T14:33:42.050Z,26.98
2023-08-11T14:36:12.876Z,26.90
2023-08-11T14:38:40.352Z,26.75
2023-08-11T14:41:07.769Z,26.70
2023-08-11T14:43:35.029Z,26.72
2023-08-11T14:46:01.717Z,26.74
2023-08-11T14:48:28.559Z,26.68
2023-08-11T14:50:55.459Z,26.62
2023-08-11T14:53:24.257Z,26.58
2023-08-11T14:55:51.725Z,26.54
2023-08-11T14:58:18.854Z,26.54
2023-08-11T15:00:45.662Z,26.55
2023-08-11T15:03:13.728Z,26.51
2023-08-11T15:05:41.011Z,26.45
2023-08-11T15:08:08.310Z,26.36
2023-08-11T15:10:35.526Z,26.31
2023-08-11T15:13:05.204Z,26.22
2023-08-11T15:15:32.633Z,26.07
2023-08-11T15:17:59.295Z,26.01
2023-08-11T15:20:25.994Z,25.90
2023-08-11T15:22:52.712Z,25.79
2023-08-11T15:25:20.097Z,25.62
2023-08-11T15:27:47.082Z,25.52
2023-08-11T15:30:14.064Z,25.47
2023-08-11T15:32:40.762Z,25.48
2023-08-11T15:35:09.070Z,25.39
2023-08-11T15:37:36.525Z,25.29
2023-08-11T15:40:05.248Z,25.26
2023-08-11T15:42:31.943Z,25.21
2023-08-11T15:44:58.588Z,25.15
2023-08-11T15:47:25.112Z,25.16
2023-08-11T15:49:51.646Z,25.16
2023-08-11T15:52:18.134Z,25.13
2023-08-11T15:54:44.759Z,25.14
2023-08-11T15:57:11.287Z,25.20
2023-08-11T15:59:37.833Z,25.14
2023-08-11T16:02:10.053Z,25.12
2023-08-11T16:04:37.716Z,25.05
2023-08-11T16:07:04.345Z,25.00
2023-08-11T16:09:30.936Z,24.99
2023-08-11T16:11:57.606Z,24.94
2023-08-11T16:14:27.785Z,25.00
2023-08-11T16:16:55.092Z,24.95
2023-08-11T16:19:21.717Z,24.93
2023-08-11T16:21:48.745Z,24.93
2023-08-11T16:24:15.497Z,24.92
2023-08-11T16:26:42.139Z,24.83
2023-08-11T16:29:08.771Z,24.81
2023-08-11T16:31:35.493Z,24.82
2023-08-11T16:34:02.159Z,24.86
2023-08-11T16:36:28.869Z,24.86
2023-08-11T16:38:55.437Z,24.86
2023-08-11T16:41:22.095Z,24.93
2023-08-11T16:43:50.981Z,24.97
2023-08-11T16:46:19.444Z,24.94
2023-08-11T16:48:46.207Z,24.86
2023-08-11T16:51:15.086Z,24.81
2023-08-11T16:53:42.443Z,24.73
2023-08-11T16:56:09.315Z,24.74
2023-08-11T16:58:36.699Z,24.71
2023-08-11T17:01:03.295Z,24.68
2023-08-11T17:03:30.098Z,24.67
2023-08-11T17:05:56.698Z,24.66
2023-08-11T17:08:23.203Z,24.61
2023-08-11T17:10:49.709Z,24.59
2023-08-11T17:13:16.217Z,24.58
2023-08-11T17:15:42.815Z,24.61
2023-08-11T17:18:09.367Z,24.63
2023-08-11T17:20:36.445Z,24.60
2023-08-11T17:23:03.008Z,24.58
2023-08-11T17:25:29.520Z,24.50
2023-08-11T17:27:55.996Z,24.35
2023-08-11T17:30:22.530Z,24.26
2023-08-11T17:32:49.351Z,24.22
2023-08-11T17:35:16.109Z,24.13
2023-08-11T17:37:42.637Z,24.11
2023-08-11T17:40:09.925Z,24.09
2023-08-11T17:42:36.550Z,24.02
2023-08-11T17:45:03.493Z,23.96
2023-08-11T17:47:30.060Z,23.89
2023-08-11T17:49:56.595Z,23.82
2023-08-11T17:52:23.260Z,23.75
2023-08-11T17:54:50.678Z,23.68
2023-08-11T17:57:17.242Z,23.66
2023-08-11T17:59:43.724Z,23.55
2023-08-11T18:02:10.569Z,23.52
2023-08-11T18:04:37.462Z,23.48
2023-08-11T18:07:04.111Z,23.46
2023-08-11T18:09:30.708Z,23.45
2023-08-11T18:11:57.221Z,23.38
2023-08-11T18:14:24.156Z,23.24
2023-08-11T18:16:50.801Z,23.27
2023-08-11T18:19:17.326Z,23.28
2023-08-11T18:21:43.860Z,23.24
2023-08-11T18:24:10.454Z,23.21
2023-08-11T18:26:36.936Z,23.15
2023-08-11T18:29:03.983Z,23.14
2023-08-11T18:31:30.753Z,23.14
2023-08-11T18:33:57.400Z,23.13
2023-08-11T18:36:23.980Z,23.09
2023-08-11T18:38:50.607Z,23.07
2023-08-11T18:41:17.076Z,23.04
2023-08-11T18:43:43.603Z,23.05
2023-08-11T18:46:10.186Z,23.02
2023-08-11T18:48:36.836Z,23.01
2023-08-11T18:51:03.414Z,22.99
2023-08-11T18:53:29.924Z,22.94
2023-08-11T18:55:56.501Z,22.93
2023-08-11T18:58:23.434Z,22.93
2023-08-11T19:00:49.989Z,22.94
2023-08-11T19:03:16.542Z,22.92
2023-08-11T19:05:43.298Z,22.89
2023-08-11T19:08:09.862Z,22.81
2023-08-11T19:10:36.536Z,22.72
2023-08-11T19:13:03.288Z,22.56
2023-08-11T19:15:30.671Z,22.47
2023-08-11T19:17:57.280Z,22.37
2023-08-11T19:20:23.816Z,22.30
2023-08-11T19:22:50.427Z,22.28
2023-08-11T19:25:17.077Z,22.21
2023-08-11T19:27:43.561Z,22.16
2023-08-11T19:30:10.691Z,22.15
2023-08-11T19:32:37.253Z,22.20
2023-08-11T19:35:05.194Z,22.23
2023-08-11T19:37:31.844Z,22.16
2023-08-11T19:39:58.478Z,22.05
2023-08-11T19:42:25.009Z,21.99
2023-08-11T19:44:51.777Z,21.98
2023-08-11T19:47:18.325Z,21.96
2023-08-11T19:49:44.864Z,21.94
2023-08-11T19:52:11.972Z,21.92
2023-08-11T19:54:39.196Z,21.82
2023-08-11T19:57:06.304Z,21.78
2023-08-11T19:59:32.943Z,21.77
2023-08-11T20:01:59.569Z,21.72
2023-08-11T20:04:26.185Z,21.67
2023-08-11T20:06:52.727Z,21.69
2023-08-11T20:09:20.395Z,21.66
2023-08-11T20:11:47.128Z,21.58
2023-08-11T20:14:13.772Z,21.53
2023-08-11T20:16:40.361Z,21.47
2023-08-11T20:19:06.927Z,21.47
2023-08-11T20:21:33.790Z,21.49
2023-08-11T20:24:00.335Z,21.51
2023-08-11T20:26:27.365Z,21.55
2023-08-11T20:28:54.747Z,21.53
2023-08-11T20:31:21.653Z,21.48
2023-08-11T20:33:48.251Z,21.48
2023-08-11T20:36:15.001Z,21.44
2023-08-11T20:38:41.521Z,21.39
2023-08-11T20:41:08.166Z,21.43
2023-08-11T20:43:34.718Z,21.42
2023-08-11T20:46:01.652Z,21.40
2023-08-11T20:48:28.898Z,21.41
2023-08-11T20:51:03.332Z,21.37
2023-08-11T20:53:30.530Z,21.20
2023-08-11T20:56:00.655Z,21.12
2023-08-11T20:58:28.060Z,21.11
2023-08-11T21:00:55.160Z,21.08
2023-08-11T21:03:22.134Z,21.10
2023-08-11T21:05:48.736Z,21.15
2023-08-11T21:08:17.369Z,21.16
2023-08-11T21:10:45.543Z,21.11
2023-08-11T21:13:12.986Z,21.00
2023-08-11T21:15:40.140Z,20.99
2023-08-11T21:18:08.585Z,20.94
2023-08-11T21:20:36.568Z,20.93
2023-08-11T21:23:04.353Z,21.05
2023-08-11T21:25:30.838Z,21.14
2023-08-11T21:27:57.409Z,21.20
2023-08-11T21:30:24.014Z,21.21
2023-08-11T21:32:52.108Z,21.26
2023-08-11T21:35:19.722Z,21.26
2023-08-11T21:37:46.318Z,21.24
2023-08-11T21:40:13.221Z,21.23
2023-08-11T21:42:39.771Z,21.21
2023-08-11T21:45:06.721Z,21.18
2023-08-11T21:47:35.712Z,21.18
2023-08-11T21:50:02.957Z,21.19
2023-08-11T21:52:29.500Z,21.19
2023-08-11T21:54:56.010Z,21.17
2023-08-11T21:57:23.402Z,21.17
2023-08-11T21:59:50.143Z,21.17
2023-08-11T22:02:17.247Z,21.18
2023-08-11T22:04:46.444Z,21.16
2023-08-11T22:07:13.653Z,21.14
2023-08-11T22:09:40.720Z,21.16
2023-08-11T22:12:07.563Z,21.18
2023-08-11T22:14:34.439Z,21.17
2023-08-11T22:17:01.477Z,21.16
2023-08-11T22:19:30.442Z,21.16
2023-08-11T22:21:57.834Z,21.14
2023-08-11T22:24:38.501Z,21.15
2023-08-11T22:27:06.837Z,21.15
2023-08-11T22:29:33.556Z,21.13
2023-08-11T22:32:00.149Z,21.09
2023-08-11T22:34:26.678Z,21.09
2023-08-11T22:36:53.161Z,21.03
2023-08-11T22:39:19.851Z,20.97
2023-08-11T22:41:46.346Z,20.99
2023-08-11T22:44:12.886Z,20.99
2023-08-11T22:46:39.629Z,21.00
2023-08-11T22:49:06.170Z,21.00
2023-08-11T22:51:32.709Z,20.98
2023-08-11T22:53:59.277Z,20.98
2023-08-11T22:56:25.863Z,20.99
2023-08-11T22:58:52.379Z,20.98
2023-08-11T23:01:18.891Z,20.94
2023-08-11T23:03:45.547Z,20.94
2023-08-11T23:06:12.427Z,20.95
2023-08-11T23:08:38.907Z,20.93
2023-08-11T23:11:05.493Z,20.91
2023-08-11T23:13:32.099Z,20.90
2023-08-11T23:16:00.757Z,20.86
2023-08-11T23:18:27.995Z,20.86
2023-08-11T23:20:54.767Z,20.86
2023-08-11T23:23:21.275Z,20.85
2023-08-11T23:25:47.990Z,20.85
2023-08-11T23:28:14.495Z,20.83
2023-08-11T23:30:41.209Z,20.82
2023-08-11T23:33:07.926Z,20.85
2023-08-11T23:35:38.845Z,20.84
2023-08-11T23:38:05.952Z,20.84
2023-08-11T23:40:32.701Z,20.79
2023-08-11T23:42:59.204Z,20.74
2023-08-11T23:45:25.880Z,20.73
2023-08-11T23:47:52.922Z,20.75
2023-08-11T23:50:19.652Z,20.75
2023-08-11T23:52:46.229Z,20.72
2023-08-11T23:55:13.473Z,20.72
2023-08-11T23:57:40.093Z,20.68
